createdAt,value
2022-12-25T00:02:15.662Z,5.72
2022-12-25T00:04:43.108Z,5.73
2022-12-25T00:07:11.321Z,5.73
2022-12-25T00:09:38.846Z,5.74
2022-12-25T00:12:06.807Z,5.74
2022-12-25T00:14:35.785Z,5.75
2022-12-25T00:17:03.632Z,5.74
2022-12-25T00:19:31.389Z,5.75
2022-12-25T00:21:59.117Z,5.76
2022-12-25T00:24:26.973Z,5.75
2022-12-25T00:26:54.751Z,5.74
2022-12-25T00:29:22.972Z,5.75
2022-12-25T00:31:50.969Z,5.74
2022-12-25T00:34:18.772Z,5.74
2022-12-25T00:36:47.045Z,5.73
2022-12-25T00:39:14.409Z,5.72
2022-12-25T00:42:00.459Z,5.72
2022-12-25T00:44:28.475Z,5.73
2022-12-25T00:46:56.067Z,5.72
2022-12-25T00:49:25.495Z,5.73
2022-12-25T00:51:53.303Z,5.73
2022-12-25T00:54:21.238Z,5.74
2022-12-25T00:56:49.057Z,5.74
2022-12-25T00:59:17.029Z,5.75
2022-12-25T01:01:44.979Z,5.77
2022-12-25T01:04:13.217Z,5.77
2022-12-25T01:06:41.103Z,5.78
2022-12-25T01:09:27.761Z,5.78
2022-12-25T01:11:55.477Z,5.81
2022-12-25T01:14:23.509Z,5.79
2022-12-25T01:16:51.271Z,5.80
2022-12-25T01:19:18.986Z,5.78
2022-12-25T01:21:46.787Z,5.77
2022-12-25T01:24:14.739Z,5.75
2022-12-25T01:26:42.500Z,5.73
2022-12-25T01:29:10.196Z,5.72
2022-12-25T01:31:37.958Z,5.70
2022-12-25T01:34:06.382Z,5.70
2022-12-25T01:36:34.231Z,5.69
2022-12-25T01:39:02.018Z,5.69
2022-12-25T01:41:29.607Z,5.67
2022-12-25T01:44:17.809Z,5.64
2022-12-25T01:46:45.880Z,5.62
2022-12-25T01:49:19.206Z,5.57
2022-12-25T01:51:58.280Z,5.49
2022-12-25T01:54:37.417Z,5.44
2022-12-25T01:57:09.566Z,5.36
2022-12-25T01:59:37.772Z,5.32
2022-12-25T02:02:05.410Z,5.26
2022-12-25T02:04:44.608Z,5.20
2022-12-25T02:07:22.432Z,5.12
2022-12-25T02:09:52.023Z,5.06
2022-12-25T02:12:26.958Z,5.04
2022-12-25T02:15:04.902Z,5.02
2022-12-25T02:17:39.772Z,5.03
2022-12-25T02:20:39.748Z,5.05
2022-12-25T02:23:28.139Z,5.07
2022-12-25T02:26:29.572Z,5.07
2022-12-25T02:29:09.485Z,5.07
2022-12-25T02:32:04.340Z,5.02
2022-12-25T02:34:49.143Z,4.99
2022-12-25T02:37:47.323Z,5.00
2022-12-25T02:40:29.726Z,5.00
2022-12-25T02:43:24.746Z,4.99
2022-12-25T02:46:18.649Z,4.97
2022-12-25T02:49:12.099Z,4.97
2022-12-25T02:52:03.293Z,4.99
2022-12-25T02:54:54.852Z,5.02
2022-12-25T02:57:45.489Z,5.06
2022-12-25T03:00:33.485Z,5.08
2022-12-25T03:03:24.547Z,5.13
2022-12-25T03:06:15.710Z,5.14
2022-12-25T03:08:48.026Z,5.17
2022-12-25T03:11:30.824Z,5.18
2022-12-25T03:14:21.138Z,5.20
2022-12-25T03:16:54.149Z,5.20
2022-12-25T03:19:46.090Z,5.18
2022-12-25T03:22:42.550Z,5.20
2022-12-25T03:25:29.196Z,5.21
2022-12-25T03:27:58.415Z,5.20
2022-12-25T03:31:11.526Z,5.21
2022-12-25T03:34:35.771Z,5.22
2022-12-25T03:37:41.928Z,5.23
2022-12-25T03:40:34.411Z,5.24
2022-12-25T03:43:31.978Z,5.23
2022-12-25T03:46:22.562Z,5.24
2022-12-25T03:49:14.694Z,5.23
2022-12-25T03:52:02.700Z,5.25
2022-12-25T03:54:51.789Z,5.25
2022-12-25T03:57:38.007Z,5.26
2022-12-25T04:00:25.502Z,5.27
2022-12-25T04:03:11.855Z,5.26
2022-12-25T04:05:58.438Z,5.28
2022-12-25T04:08:44.794Z,5.28
2022-12-25T04:11:31.415Z,5.29
2022-12-25T04:14:17.391Z,5.29
2022-12-25T04:17:03.535Z,5.29
2022-12-25T04:19:50.200Z,5.28
2022-12-25T04:22:36.459Z,5.28
2022-12-25T04:25:23.151Z,5.27
2022-12-25T04:28:09.463Z,5.27
2022-12-25T04:30:55.759Z,5.25
2022-12-25T04:33:41.697Z,5.26
2022-12-25T04:36:09.869Z,5.24
2022-12-25T04:38:39.261Z,5.25
2022-12-25T04:41:10.151Z,5.23
2022-12-25T04:43:38.315Z,5.24
2022-12-25T04:46:06.391Z,5.22
2022-12-25T04:48:36.477Z,5.22
2022-12-25T04:51:18.991Z,5.23
2022-12-25T04:53:48.176Z,5.22
2022-12-25T04:56:19.236Z,5.22
2022-12-25T04:58:46.934Z,5.24
2022-12-25T05:01:15.580Z,5.23
2022-12-25T05:03:43.843Z,5.26
2022-12-25T05:06:11.983Z,5.24
2022-12-25T05:08:39.835Z,5.25
2022-12-25T05:11:11.050Z,5.23
2022-12-25T05:13:39.192Z,5.22
2022-12-25T05:16:17.221Z,5.19
2022-12-25T05:18:50.577Z,5.17
2022-12-25T05:21:19.201Z,5.12
2022-12-25T05:23:52.607Z,5.08
2022-12-25T05:26:24.233Z,5.05
2022-12-25T05:28:52.715Z,4.99
2022-12-25T05:31:20.744Z,4.94
2022-12-25T05:33:52.528Z,4.90
2022-12-25T05:36:20.485Z,4.87
2022-12-25T05:38:48.417Z,4.86
2022-12-25T05:41:16.210Z,4.85
2022-12-25T05:43:43.970Z,4.85
2022-12-25T05:46:13.872Z,4.85
2022-12-25T05:48:41.896Z,4.89
2022-12-25T05:51:12.358Z,4.89
2022-12-25T05:53:43.454Z,4.93
2022-12-25T05:56:12.197Z,4.95
2022-12-25T05:58:40.460Z,4.97
2022-12-25T06:01:18.044Z,4.99
2022-12-25T06:03:45.971Z,5.02
2022-12-25T06:06:14.285Z,5.04
2022-12-25T06:08:42.298Z,5.07
2022-12-25T06:11:11.130Z,5.10
2022-12-25T06:13:38.923Z,5.12
2022-12-25T06:16:09.682Z,5.15
2022-12-25T06:18:39.863Z,5.16
2022-12-25T06:21:11.006Z,5.17
2022-12-25T06:23:39.279Z,5.19
2022-12-25T06:26:11.136Z,5.21
2022-12-25T06:28:38.691Z,5.21
2022-12-25T06:31:12.437Z,5.24
2022-12-25T06:33:40.640Z,5.25
2022-12-25T06:36:12.983Z,5.25
2022-12-25T06:38:40.788Z,5.26
2022-12-25T06:41:13.638Z,5.28
2022-12-25T06:43:41.251Z,5.30
2022-12-25T06:46:11.980Z,5.34
2022-12-25T06:48:43.066Z,5.36
2022-12-25T06:51:10.814Z,5.38
2022-12-25T06:53:40.116Z,5.41
2022-12-25T06:56:14.209Z,5.43
2022-12-25T06:58:51.446Z,5.46
2022-12-25T07:01:24.513Z,5.47
2022-12-25T07:04:00.227Z,5.49
2022-12-25T07:06:28.472Z,5.49
2022-12-25T07:08:56.523Z,5.48
2022-12-25T07:11:24.873Z,5.47
2022-12-25T07:13:52.686Z,5.48
2022-12-25T07:16:20.682Z,5.50
2022-12-25T07:18:48.434Z,5.53
2022-12-25T07:21:19.443Z,5.57
2022-12-25T07:23:49.883Z,5.62
2022-12-25T07:26:18.337Z,5.64
2022-12-25T07:28:46.237Z,5.67
2022-12-25T07:31:16.538Z,5.72
2022-12-25T07:33:45.438Z,5.77
2022-12-25T07:36:15.326Z,5.83
2022-12-25T07:38:43.734Z,5.86
2022-12-25T07:41:12.544Z,5.88
2022-12-25T07:43:40.901Z,5.89
2022-12-25T07:46:10.100Z,5.92
2022-12-25T07:48:39.759Z,5.94
2022-12-25T07:51:11.722Z,5.98
2022-12-25T07:53:40.570Z,6.00
2022-12-25T07:56:16.808Z,6.03
2022-12-25T07:58:47.879Z,6.05
2022-12-25T08:01:23.303Z,6.08
2022-12-25T08:03:58.330Z,6.18
2022-12-25T08:06:34.586Z,6.32
2022-12-25T08:09:07.245Z,6.50
2022-12-25T08:11:35.980Z,6.65
2022-12-25T08:14:08.038Z,6.81
2022-12-25T08:16:38.029Z,6.91
2022-12-25T08:19:05.650Z,7.02
2022-12-25T08:21:34.608Z,7.16
2022-12-25T08:24:02.882Z,7.28
2022-12-25T08:26:31.362Z,7.39
2022-12-25T08:28:59.315Z,7.36
2022-12-25T08:31:29.396Z,7.31
2022-12-25T08:33:58.924Z,7.27
2022-12-25T08:36:27.079Z,7.26
2022-12-25T08:39:02.090Z,7.15
2022-12-25T08:41:24.837Z,7.11
2022-12-25T08:43:52.687Z,7.05
2022-12-25T08:46:20.809Z,6.98
2022-12-25T08:48:49.927Z,6.94
2022-12-25T08:51:20.964Z,6.86
2022-12-25T08:53:52.052Z,6.82
2022-12-25T08:56:20.569Z,6.85
2022-12-25T08:58:48.907Z,6.85
2022-12-25T09:01:16.772Z,6.87
2022-12-25T09:03:44.929Z,6.89
2022-12-25T09:06:15.956Z,6.96
2022-12-25T09:08:49.248Z,7.02
2022-12-25T09:11:16.343Z,7.05
2022-12-25T09:13:44.152Z,7.07
2022-12-25T09:16:16.656Z,7.11
2022-12-25T09:18:44.832Z,7.24
2022-12-25T09:21:14.611Z,7.46
2022-12-25T09:23:42.949Z,7.70
2022-12-25T09:26:14.466Z,7.91
2022-12-25T09:28:48.750Z,8.12
2022-12-25T09:31:13.190Z,8.20
2022-12-25T09:33:41.330Z,8.28
2022-12-25T09:36:10.068Z,8.44
2022-12-25T09:38:37.547Z,8.53
2022-12-25T09:41:25.695Z,8.59
2022-12-25T09:44:10.505Z,8.53
2022-12-25T09:46:46.863Z,8.49
2022-12-25T09:49:42.778Z,8.42
2022-12-25T09:52:27.256Z,8.32
2022-12-25T09:55:21.224Z,8.24
2022-12-25T09:57:58.266Z,8.03
2022-12-25T10:00:36.153Z,7.92
2022-12-25T10:03:39.452Z,7.90
2022-12-25T10:06:21.902Z,7.85
2022-12-25T10:09:19.401Z,7.76
2022-12-25T10:12:11.746Z,7.78
2022-12-25T10:15:06.568Z,7.75
2022-12-25T10:17:52.335Z,7.70
2022-12-25T10:20:23.507Z,7.66
2022-12-25T10:23:00.550Z,7.67
2022-12-25T10:25:28.495Z,7.62
2022-12-25T10:28:01.680Z,7.63
2022-12-25T10:30:31.050Z,7.60
2022-12-25T10:32:58.866Z,7.58
2022-12-25T10:35:29.549Z,7.58
2022-12-25T10:38:04.408Z,7.60
2022-12-25T10:41:01.590Z,7.61
2022-12-25T10:43:55.066Z,7.66
2022-12-25T10:46:26.884Z,7.70
2022-12-25T10:49:00.745Z,7.74
2022-12-25T10:51:35.318Z,7.73
2022-12-25T10:54:24.399Z,7.76
2022-12-25T10:57:06.422Z,7.78
2022-12-25T10:59:44.601Z,7.74
2022-12-25T11:02:33.230Z,7.74
2022-12-25T11:05:08.200Z,7.80
2022-12-25T11:07:40.305Z,7.91
2022-12-25T11:10:32.537Z,8.00
2022-12-25T11:13:01.803Z,8.04
2022-12-25T11:15:45.752Z,8.06
2022-12-25T11:18:26.488Z,8.11
2022-12-25T11:20:58.317Z,8.12
2022-12-25T11:23:29.623Z,8.15
2022-12-25T11:26:02.031Z,8.11
2022-12-25T11:28:33.628Z,8.09
2022-12-25T11:31:09.610Z,8.10
2022-12-25T11:33:45.383Z,8.10
2022-12-25T11:36:25.016Z,8.05
2022-12-25T11:38:52.757Z,8.02
2022-12-25T11:41:24.623Z,7.99
2022-12-25T11:44:04.019Z,7.98
2022-12-25T11:46:37.240Z,7.95
2022-12-25T11:49:09.646Z,7.91
2022-12-25T11:51:41.544Z,7.92
2022-12-25T11:54:33.550Z,7.94
2022-12-25T11:57:04.432Z,7.96
2022-12-25T11:59:55.869Z,7.99
2022-12-25T12:02:38.530Z,8.01
2022-12-25T12:05:26.997Z,7.98
2022-12-25T12:07:59.608Z,7.97
2022-12-25T12:10:58.532Z,7.96
2022-12-25T12:13:47.162Z,7.96
2022-12-25T12:16:15.017Z,8.00
2022-12-25T12:18:49.810Z,8.02
2022-12-25T12:21:26.548Z,7.96
2022-12-25T12:24:10.025Z,7.95
2022-12-25T12:26:40.908Z,7.92
2022-12-25T12:29:37.626Z,7.88
2022-12-25T12:32:09.890Z,7.86
2022-12-25T12:34:47.539Z,7.86
2022-12-25T12:37:29.472Z,7.85
2022-12-25T12:39:58.274Z,7.82
2022-12-25T12:42:33.118Z,7.81
2022-12-25T12:45:12.621Z,7.82
2022-12-25T12:47:45.987Z,7.82
2022-12-25T12:50:37.043Z,7.81
2022-12-25T12:53:25.460Z,7.80
2022-12-25T12:55:53.541Z,7.80
2022-12-25T12:58:34.649Z,7.80
2022-12-25T13:01:28.289Z,7.80
2022-12-25T13:04:41.795Z,7.81
2022-12-25T13:07:59.306Z,7.81
2022-12-25T13:10:53.041Z,7.80
2022-12-25T13:13:32.473Z,7.78
2022-12-25T13:16:00.149Z,7.76
2022-12-25T13:18:28.228Z,7.73
2022-12-25T13:21:03.881Z,7.70
2022-12-25T13:23:38.865Z,7.68
2022-12-25T13:26:16.744Z,7.64
2022-12-25T13:28:47.373Z,7.61
2022-12-25T13:31:25.824Z,7.58
2022-12-25T13:34:23.765Z,7.56
2022-12-25T13:36:52.362Z,7.56
2022-12-25T13:39:20.715Z,7.55
2022-12-25T13:42:08.979Z,7.54
2022-12-25T13:44:52.286Z,7.52
2022-12-25T13:47:28.678Z,7.50
2022-12-25T13:50:00.153Z,7.49
2022-12-25T13:52:37.431Z,7.48
2022-12-25T13:55:16.447Z,7.47
2022-12-25T13:58:02.677Z,7.47
2022-12-25T14:00:46.432Z,7.46
2022-12-25T14:03:25.852Z,7.43
2022-12-25T14:06:02.008Z,7.39
2022-12-25T14:08:32.013Z,7.36
2022-12-25T14:11:04.473Z,7.32
2022-12-25T14:13:40.344Z,7.26
2022-12-25T14:16:12.346Z,7.23
2022-12-25T14:18:51.905Z,7.21
2022-12-25T14:21:33.309Z,7.16
2022-12-25T14:24:01.548Z,7.10
2022-12-25T14:26:35.853Z,7.07
2022-12-25T14:29:17.837Z,7.05
2022-12-25T14:31:47.474Z,7.04
2022-12-25T14:34:26.805Z,7.03
2022-12-25T14:36:54.839Z,7.03
2022-12-25T14:39:37.818Z,7.01
2022-12-25T14:42:22.381Z,6.97
2022-12-25T14:45:23.421Z,6.93
2022-12-25T14:47:58.473Z,6.88
2022-12-25T14:50:39.080Z,6.80
2022-12-25T14:53:20.483Z,6.75
2022-12-25T14:55:53.902Z,6.67
2022-12-25T14:58:27.835Z,6.61
2022-12-25T15:00:59.247Z,6.53
2022-12-25T15:03:35.862Z,6.45
2022-12-25T15:06:13.315Z,6.39
2022-12-25T15:08:40.885Z,6.30
2022-12-25T15:11:08.940Z,6.24
2022-12-25T15:13:36.697Z,6.16
2022-12-25T15:16:15.115Z,6.07
2022-12-25T15:18:46.587Z,5.97
2022-12-25T15:21:24.183Z,5.82
2022-12-25T15:23:57.445Z,5.67
2022-12-25T15:26:28.740Z,5.55
2022-12-25T15:28:57.851Z,5.44
2022-12-25T15:31:32.386Z,5.38
2022-12-25T15:34:04.058Z,5.30
2022-12-25T15:36:32.284Z,5.21
2022-12-25T15:39:01.134Z,5.14
2022-12-25T15:41:52.526Z,5.09
2022-12-25T15:44:20.994Z,5.02
2022-12-25T15:46:49.031Z,4.93
2022-12-25T15:49:17.496Z,4.87
2022-12-25T15:51:46.968Z,4.78
2022-12-25T15:54:14.954Z,4.71
2022-12-25T15:56:47.140Z,4.64
2022-12-25T15:59:17.506Z,4.55
2022-12-25T16:01:53.164Z,4.49
2022-12-25T16:04:25.293Z,4.41
2022-12-25T16:06:54.790Z,4.34
2022-12-25T16:09:23.131Z,4.27
2022-12-25T16:11:51.283Z,4.22
2022-12-25T16:14:18.966Z,4.16
2022-12-25T16:16:46.765Z,4.11
2022-12-25T16:19:14.417Z,4.04
2022-12-25T16:21:46.993Z,3.99
2022-12-25T16:24:14.767Z,3.91
2022-12-25T16:26:42.963Z,3.85
2022-12-25T16:29:11.120Z,3.77
2022-12-25T16:31:39.424Z,3.71
2022-12-25T16:34:08.228Z,3.68
2022-12-25T16:36:36.183Z,3.64
2022-12-25T16:39:04.508Z,3.58
2022-12-25T16:41:32.969Z,3.54
2022-12-25T16:44:08.003Z,3.50
2022-12-25T16:46:36.951Z,3.46
2022-12-25T16:49:05.216Z,3.41
2022-12-25T16:51:33.310Z,3.36
2022-12-25T16:54:01.297Z,3.29
2022-12-25T16:56:30.255Z,3.25
2022-12-25T16:58:58.778Z,3.05
2022-12-25T17:01:27.124Z,3.14
2022-12-25T17:04:01.188Z,3.09
2022-12-25T17:06:29.219Z,3.01
2022-12-25T17:08:59.822Z,2.96
2022-12-25T17:11:29.782Z,2.92
2022-12-25T17:14:02.064Z,2.89
2022-12-25T17:16:34.254Z,2.83
2022-12-25T17:19:07.778Z,2.79
2022-12-25T17:21:37.845Z,2.76
2022-12-25T17:24:06.773Z,2.72
2022-12-25T17:26:35.449Z,2.70
2022-12-25T17:29:03.745Z,2.67
2022-12-25T17:31:31.548Z,2.62
2022-12-25T17:34:01.567Z,2.57
2022-12-25T17:36:30.938Z,2.55
2022-12-25T17:39:01.223Z,2.55
2022-12-25T17:41:29.169Z,2.55
2022-12-25T17:43:56.907Z,2.58
2022-12-25T17:46:28.497Z,2.58
2022-12-25T17:48:59.661Z,2.60
2022-12-25T17:51:30.262Z,2.60
2022-12-25T17:54:02.657Z,2.62
2022-12-25T17:56:31.616Z,2.64
2022-12-25T17:59:03.958Z,2.66
2022-12-25T18:01:32.729Z,2.67
2022-12-25T18:04:01.120Z,2.70
2022-12-25T18:06:29.270Z,2.70
2022-12-25T18:08:58.013Z,2.69
2022-12-25T18:11:30.914Z,2.66
2022-12-25T18:14:04.720Z,2.51
2022-12-25T18:16:35.479Z,2.65
2022-12-25T18:19:04.022Z,2.65
2022-12-25T18:21:32.016Z,2.63
2022-12-25T18:24:03.775Z,2.61
2022-12-25T18:26:32.599Z,2.60
2022-12-25T18:29:02.456Z,2.59
2022-12-25T18:31:31.282Z,2.57
2022-12-25T18:34:00.161Z,2.57
2022-12-25T18:36:29.541Z,2.57
2022-12-25T18:38:58.830Z,2.57
2022-12-25T18:41:28.232Z,2.56
2022-12-25T18:43:57.579Z,2.56
2022-12-25T18:46:27.380Z,2.54
2022-12-25T18:48:56.924Z,2.52
2022-12-25T18:51:28.694Z,2.50
2022-12-25T18:53:56.029Z,2.47
2022-12-25T18:56:23.648Z,2.44
2022-12-25T18:58:51.452Z,2.40
2022-12-25T19:01:23.533Z,2.37
2022-12-25T19:03:57.160Z,2.33
2022-12-25T19:06:26.515Z,2.30
2022-12-25T19:08:59.120Z,2.27
2022-12-25T19:11:26.885Z,2.22
2022-12-25T19:13:55.831Z,2.19
2022-12-25T19:16:23.932Z,2.15
2022-12-25T19:18:51.771Z,2.12
2022-12-25T19:21:19.705Z,2.09
2022-12-25T19:23:47.585Z,2.07
2022-12-25T19:26:15.287Z,2.04
2022-12-25T19:28:43.171Z,2.01
2022-12-25T19:31:11.949Z,1.96
2022-12-25T19:33:41.906Z,1.92
2022-12-25T19:36:13.798Z,1.88
2022-12-25T19:38:43.450Z,1.83
2022-12-25T19:41:17.792Z,1.82
2022-12-25T19:43:47.900Z,1.80
2022-12-25T19:46:29.441Z,1.76
2022-12-25T19:48:58.719Z,1.73
2022-12-25T19:51:28.760Z,1.69
2022-12-25T19:53:56.797Z,1.64
2022-12-25T19:56:26.822Z,1.62
2022-12-25T19:58:55.533Z,1.60
2022-12-25T20:01:27.255Z,1.56
2022-12-25T20:03:56.755Z,1.52
2022-12-25T20:06:31.669Z,1.51
2022-12-25T20:09:04.651Z,1.50
2022-12-25T20:11:34.704Z,1.46
2022-12-25T20:14:04.503Z,1.43
2022-12-25T20:16:32.738Z,1.41
2022-12-25T20:19:00.409Z,1.38
2022-12-25T20:21:29.328Z,1.38
2022-12-25T20:23:57.373Z,1.37
2022-12-25T20:26:29.007Z,1.36
2022-12-25T20:28:57.480Z,1.35
2022-12-25T20:31:29.201Z,1.33
2022-12-25T20:34:00.472Z,1.30
2022-12-25T20:36:34.429Z,1.28
2022-12-25T20:38:57.671Z,1.28
2022-12-25T20:41:27.328Z,1.26
2022-12-25T20:43:54.970Z,1.26
2022-12-25T20:46:25.229Z,1.24
2022-12-25T20:48:53.575Z,1.21
2022-12-25T20:51:25.355Z,1.20
2022-12-25T20:53:54.342Z,1.15
2022-12-25T20:56:25.423Z,1.13
2022-12-25T20:58:57.637Z,1.08
2022-12-25T21:01:28.215Z,1.07
2022-12-25T21:03:57.218Z,1.03
2022-12-25T21:06:25.017Z,0.97
2022-12-25T21:08:54.486Z,0.94
2022-12-25T21:11:23.023Z,0.95
2022-12-25T21:13:51.023Z,0.94
2022-12-25T21:16:24.908Z,0.95
2022-12-25T21:18:58.851Z,0.90
2022-12-25T21:21:27.474Z,0.92
2022-12-25T21:23:56.670Z,0.91
2022-12-25T21:26:30.448Z,0.89
2022-12-25T21:29:01.724Z,0.90
2022-12-25T21:31:33.021Z,0.89
2022-12-25T21:34:00.635Z,0.87
2022-12-25T21:36:31.819Z,0.83
2022-12-25T21:39:07.518Z,0.78
2022-12-25T21:41:38.118Z,0.76
2022-12-25T21:44:08.456Z,0.75
2022-12-25T21:46:36.199Z,0.74
2022-12-25T21:49:03.967Z,0.72
2022-12-25T21:51:52.720Z,0.71
2022-12-25T21:54:23.696Z,0.71
2022-12-25T21:56:51.530Z,0.70
2022-12-25T21:59:21.637Z,0.69
2022-12-25T22:02:06.845Z,0.68
2022-12-25T22:04:36.570Z,0.64
2022-12-25T22:07:17.206Z,0.65
2022-12-25T22:09:48.571Z,0.65
2022-12-25T22:12:38.129Z,0.65
2022-12-25T22:15:10.774Z,0.69
2022-12-25T22:18:00.209Z,0.71
2022-12-25T22:20:36.152Z,0.74
2022-12-25T22:23:05.074Z,0.76
2022-12-25T22:25:32.890Z,0.77
2022-12-25T22:28:00.678Z,0.83
2022-12-25T22:30:29.274Z,0.86
2022-12-25T22:32:57.387Z,0.90
2022-12-25T22:35:25.202Z,0.93
2022-12-25T22:37:53.642Z,0.97
2022-12-25T22:40:21.417Z,1.00
2022-12-25T22:42:53.184Z,1.03
2022-12-25T22:45:22.799Z,1.06
2022-12-25T22:47:53.390Z,1.09
2022-12-25T22:50:21.925Z,1.10
2022-12-25T22:52:50.565Z,1.12
2022-12-25T22:55:21.899Z,1.14
2022-12-25T22:57:51.689Z,1.17
2022-12-25T23:00:20.759Z,1.20
2022-12-25T23:02:49.075Z,1.21
2022-12-25T23:05:17.757Z,1.25
2022-12-25T23:07:45.456Z,1.26
2022-12-25T23:10:13.411Z,1.27
2022-12-25T23:13:00.125Z,1.29
2022-12-25T23:15:28.457Z,1.32
2022-12-25T23:18:14.435Z,1.33
2022-12-25T23:21:00.818Z,1.33
2022-12-25T23:23:47.478Z,1.34
2022-12-25T23:26:18.415Z,1.31
2022-12-25T23:29:04.714Z,1.29
2022-12-25T23:31:40.198Z,1.29
2022-12-25T23:34:09.893Z,1.29
2022-12-25T23:36:37.700Z,1.31
2022-12-25T23:39:10.025Z,1.33
2022-12-25T23:41:35.892Z,1.34
2022-12-25T23:44:03.651Z,1.36
2022-12-25T23:46:31.704Z,1.37
2022-12-25T23:48:59.439Z,1.38
2022-12-25T23:51:27.417Z,1.40
2022-12-25T23:53:55.292Z,1.39
2022-12-25T23:56:23.523Z,1.40
2022-12-25T23:58:51.518Z,1.41
